SLET/SRZ METAR and TAF weather

Enter ICAO airport designator
Station Type Date Time Source
SLET METAR 2019/04/25 18:00 UTC NOAA

SLET 251800Z 33012G23KT 9999 FEW015 BKN017 31/23 Q1013


Station Type Date Time Source
SLET Decoded METAR 2019/04/25 18:00 UTC NOAA

Santa Cruz / El Trompillo, Bolivia (SLET) 17-48S 063-11W 414M
Apr 25, 2019 - 02:00 PM EDT / 2019.04.25 1800 UTC
Wind: from the NNW (330 degrees) at 14 MPH (12 KT) gusting to 26 MPH (23 KT):0
Visibility: greater than 7 mile(s):0
Sky conditions: mostly cloudy
Temperature: 87 F (31 C)
Heat index: 93.9 F (34.4 C):1
Dew Point: 73 F (23 C)
Relative Humidity: 62%
Pressure (altimeter): 29.91 in. Hg (1013 hPa)
ob: SLET 251800Z 33012G23KT 9999 FEW015 BKN017 31/23 Q1013
cycle: 18

Station Type Date Time Source
SLET TAF 2019/04/25 18:25 UTC NOAA

TAF SLET 251615Z 2518/2618 36005KT 9999 SCT017 TX31/2520Z TN22/2611Z
TEMPO 2602/2606 33004KT NSC
TEMPO 2608/2610 5000 BR SCT005 SCT070
BECMG 2612/2615 33012KT 9999 NSW SCT015

Example: see airport list